Piedmont Triad International Airport
KGSO : now visible

Airfield :











YOU CAN JOIN US ON...

 
LOGIN :

Register | Disclaimer

   EN    FR    IT 

 









Legend :    VFR   Marginal VFR   IFR   Intensive IFR   Very Intensive IFR
Visi :
Ceiling :
>= 8 km
>= 3000ft
5 to 8 km
1000 to 3000 ft
1500m to 5 km
500 to 1000 ft
800 to 1500m
200 to 500 ft
< 800m
< 200 ft
Symbols :   Thunderstorms  Fog  Heavy snow  Heavy precipitations  Wind > 20 kt






- Airport Elevation : 925 ft
- IATA code : GSO


KGSO - Piedmont Triad International

CURRENT METAR :
  • 281536Z 34012G18KT 10SM BKN031 01/M05 A3025 RMK AO2 T00111050

EXPIRED METARs :
  • 281508Z 35007KT 310V020 10SM BKN028 01/M04 A3024 RMK AO2 T00111039
  • 281454Z 35004KT 10SM BKN030 01/M03 A3024 RMK AO2 SLP243 T00111033 51023
  • 281354Z 35006KT 10SM BKN040 01/M04 A3023 RMK AO2 SLP240 T00061044
  • 281254Z 34009KT 10SM CLR 00/M04 A3020 RMK AO2 SLP230 T00001044

TAF KGSO
Valid from the 28 at 15:00 until the 29 at 12:00 UTC


281448Z 2815/2912 34012G24KT P6SM SCT035
FM282300 32010G16KT P6SM SKC
FM291100 33008KT P6SM SKC
KZTL FIR / North America



MET'MAP, your aeronautical weather chart ! - Copyright ORBIFLY December 2007 - Disclaimer

ORBIFLY MET'MAP TEAM :

Programming & Development : Alexandra Zaïnal
Concept & original design : Baudouin d'Aumeries
Assistance for programming : Marc-Olivier Méhu
Technical & hardware support : Manuel Goepfert

Contact : metmap@orbifly.com




SOURCES & CREDITS :

   NOAA       Earth
Advisory